Airfield :
LOGIN :

Register | Disclaimer

   EN    FR    IT 

 










Legend :    VFR   Marginal VFR   IFR   Intensive IFR   Very Intensive IFR
Visi :
Ceiling :
>= 8 km
>= 3000ft
5 to 8 km
1000 to 3000 ft
1500m to 5 km
500 to 1000 ft
800 to 1500m
200 to 500 ft
< 800m
< 200 ft
Symbols :   Thunderstorms  Fog  Heavy snow  Heavy precipitations  Wind > 20 kt
SIGMETs :     Misc.  Thunderstorms  Icing  Turbulence  Mountain Waves  Volcanic Ashes






- Airport Elevation : 464 ft
- IATA code : EVX


LFOE - Evreux

CURRENT METAR :
  • 282130Z AUTO 18008KT 9999 OVC013 09/07 Q1019

EXPIRED METARs :
  • 282100Z AUTO 19008KT 9999 FEW014 BKN032 OVC058 09/07 Q1019
  • 282030Z AUTO 19009KT 9999 BKN024 OVC030 09/07 Q1019
  • 282000Z AUTO 20008KT 9999 BKN027 OVC032 09/07 Q1019
  • 281930Z AUTO 19009KT 9999 BKN026 OVC033 09/07 Q1020
  • 281900Z AUTO 20010KT 9999 OVC023 09/07 Q1020
  • 281830Z AUTO 19009KT 9999 OVC025 09/07 Q1020
  • 281800Z AUTO 21009KT 9999 BKN030 BKN038 BKN110 09/07 Q1020
  • 281730Z AUTO 20008KT 9999 BKN019 BKN032 OVC120 10/07 Q1020
  • 281700Z AUTO 20011KT 9999 BKN020 BKN030 10/07 Q1020 BECMG BKN008

TAF AMD TAF LFOE
Valid from the 28 at 15:00 until the 29 at 15:00 UTC


281530Z 2815/2915 21010KT 9999 BKN020 OVC025
BECMG 2818/2820 BKN008
TEMPO 2821/2910 4000 -RADZ BKN004
BECMG 2910/2912 BKN020
TEMPO 2913/2915 4000 -RA



MET'MAP, your aeronautical weather chart ! - Copyright ORBIFLY December 2007 - Disclaimer

ORBIFLY MET'MAP TEAM :

Programming & Development : Alexandra Zaïnal
Original concept : Baudouin d'Aumeries
Technical & hardware support : Manuel Goepfert
Assistance : Marc-Olivier Méhu




SOURCES & CREDITS :

   NOAA